Time;durP1;ratioP1;P1;durP2;ratioP2;P2;SDS_P1;SDS_P2;PMS_P1;PMS_P2;Temp;Humidity;BMP_temperature;BMP_pressure;BME280_temperature;BME280_humidity;BME280_pressure;Samples;Min_cycle;Max_cycle;Signal;HPM_P1;HPM_P2
2022/11/17 00:00:23;;;;;;;16.08;7.50;;;20.10;58.00;;;;;;5070383;28;20096;-80
2022/11/17 00:02:49;;;;;;;20.38;7.22;;;20.10;57.60;;;;;;5065222;28;20044;-79
2022/11/17 00:05:15;;;;;;;12.35;6.43;;;20.10;58.20;;;;;;5069034;28;20020;-81
2022/11/17 00:07:44;;;;;;;13.15;6.50;;;20.10;57.70;;;;;;5068896;28;20591;-81
2022/11/17 00:10:10;;;;;;;17.88;6.80;;;20.10;58.20;;;;;;5066061;28;20048;-79
2022/11/17 00:15:20;;;;;;;12.60;6.22;;;20.10;57.90;;;;;;5070020;28;20016;-79
2022/11/17 00:17:47;;;;;;;13.77;6.60;;;20.10;58.40;;;;;;5071545;28;20033;-79
2022/11/17 00:22:59;;;;;;;14.02;6.78;;;20.10;58.50;;;;;;5070782;28;20404;-80
2022/11/17 00:25:24;;;;;;;10.48;6.00;;;20.10;58.40;;;;;;5071307;28;20024;-81
2022/11/17 00:27:50;;;;;;;12.52;7.13;;;20.10;58.50;;;;;;5071974;28;20040;-81
2022/11/17 00:35:52;;;;;;;8.73;5.90;;;20.10;58.70;;;;;;5067323;28;20036;-83
2022/11/17 00:38:18;;;;;;;11.00;6.10;;;20.10;58.70;;;;;;5070915;28;20085;-80
2022/11/17 00:40:44;;;;;;;16.17;6.10;;;20.10;58.80;;;;;;5070376;28;20024;-81
2022/11/17 00:43:09;;;;;;;12.75;6.90;;;20.10;58.70;;;;;;5071766;28;20024;-81
2022/11/17 00:45:35;;;;;;;17.13;6.53;;;20.10;58.80;;;;;;5069962;28;20107;-80
2022/11/17 00:48:01;;;;;;;11.10;5.97;;;20.10;58.90;;;;;;5071629;28;20062;-83
2022/11/17 00:50:27;;;;;;;13.63;5.93;;;20.10;59.00;;;;;;5071208;28;20489;-76
2022/11/17 00:52:52;;;;;;;35.70;25.92;;;20.10;58.90;;;;;;5072350;28;20051;-76
2022/11/17 00:55:18;;;;;;;37.13;30.42;;;20.00;54.10;;;;;;5067319;28;20044;-80
2022/11/17 00:57:44;;;;;;;43.80;30.00;;;19.80;49.60;;;;;;5032788;28;20062;-84
2022/11/17 01:00:10;;;;;;;46.38;28.90;;;19.80;51.70;;;;;;5070442;28;21522;-78
2022/11/17 01:02:36;;;;;;;47.67;28.50;;;19.80;51.90;;;;;;5072067;28;20024;-77
2022/11/17 01:05:02;;;;;;;38.30;25.33;;;19.80;51.70;;;;;;5072399;28;20512;-76
2022/11/17 01:07:28;;;;;;;50.85;24.27;;;19.80;53.00;;;;;;5069139;28;20032;-78
2022/11/17 01:09:53;;;;;;;44.28;23.67;;;19.90;53.50;;;;;;5071448;28;20016;-76
2022/11/17 01:12:19;;;;;;;35.78;23.15;;;19.90;53.60;;;;;;5072472;28;20024;-77
2022/11/17 01:14:45;;;;;;;29.05;21.45;;;19.90;54.30;;;;;;5071055;28;20103;-75
2022/11/17 01:17:11;;;;;;;26.85;21.25;;;19.90;54.40;;;;;;5064002;28;20032;-76
2022/11/17 01:19:37;;;;;;;33.05;20.88;;;19.90;54.40;;;;;;5071054;28;20020;-76
2022/11/17 01:22:03;;;;;;;34.83;21.95;;;20.00;55.40;;;;;;5070598;28;20036;-76
2022/11/17 01:24:28;;;;;;;27.92;19.05;;;20.00;55.40;;;;;;5071481;28;20029;-77
2022/11/17 01:26:54;;;;;;;30.20;20.35;;;20.00;55.20;;;;;;5070765;28;20390;-77
2022/11/17 01:29:20;;;;;;;29.52;20.60;;;20.00;55.80;;;;;;5071799;28;20059;-78
2022/11/17 01:31:50;;;;;;;29.10;19.73;;;20.00;56.10;;;;;;5071361;28;20124;-78
2022/11/17 01:34:16;;;;;;;29.70;20.13;;;20.00;56.00;;;;;;5071216;28;20505;-78
2022/11/17 01:39:29;;;;;;;32.10;19.00;;;20.00;56.50;;;;;;5064487;28;20020;-77
2022/11/17 01:41:56;;;;;;;28.27;18.83;;;20.00;56.10;;;;;;5071924;28;20032;-77
2022/11/17 01:45:01;;;;;;;32.60;18.80;;;20.00;56.00;;;;;;5070306;28;20039;-76
2022/11/17 01:47:35;;;;;;;28.38;18.25;;;20.00;56.40;;;;;;5051850;28;20454;-78
2022/11/17 01:50:26;;;;;;;27.10;18.23;;;20.00;56.60;;;;;;5071074;28;20138;-77
2022/11/17 01:52:56;;;;;;;37.15;18.13;;;20.00;56.50;;;;;;5069149;28;20032;-76
2022/11/17 01:55:24;;;;;;;26.80;18.02;;;20.00;57.10;;;;;;5071547;28;20059;-76
2022/11/17 01:57:57;;;;;;;32.25;16.85;;;20.00;56.80;;;;;;5053058;28;20150;-76
2022/11/17 02:00:23;;;;;;;33.30;17.38;;;20.00;56.50;;;;;;5071590;28;20028;-75
2022/11/17 02:02:50;;;;;;;26.30;16.40;;;20.00;56.60;;;;;;5071308;28;20078;-75
2022/11/17 02:05:53;;;;;;;30.73;15.88;;;20.00;56.20;;;;;;5070399;28;20078;-75
2022/11/17 02:08:21;;;;;;;30.00;16.65;;;20.00;56.50;;;;;;5048144;28;20036;-75
2022/11/17 02:10:50;;;;;;;28.85;16.02;;;20.00;56.50;;;;;;5065219;28;20025;-75
2022/11/17 02:13:15;;;;;;;25.67;15.93;;;20.00;56.70;;;;;;5057486;28;20492;-75
2022/11/17 02:15:41;;;;;;;25.27;15.07;;;20.00;56.80;;;;;;5081239;28;20036;-75
2022/11/17 02:18:07;;;;;;;28.88;15.07;;;20.00;56.90;;;;;;5071798;28;20389;-74
2022/11/17 02:21:10;;;;;;;27.77;16.02;;;20.00;57.10;;;;;;5070201;28;20035;-75
2022/11/17 02:23:50;;;;;;;24.15;14.73;;;20.00;57.20;;;;;;5063929;28;20063;-75
2022/11/17 02:26:40;;;;;;;29.63;14.45;;;20.00;57.10;;;;;;5068506;28;20078;-75
2022/11/17 02:29:23;;;;;;;24.55;14.18;;;20.10;57.20;;;;;;5070642;28;20024;-75
2022/11/17 02:32:03;;;;;;;22.90;15.20;;;20.00;57.30;;;;;;5069723;28;20036;-75
2022/11/17 02:35:08;;;;;;;25.65;14.35;;;20.00;57.50;;;;;;5062951;28;20020;-75
2022/11/17 02:38:15;;;;;;;24.65;14.52;;;20.00;57.50;;;;;;5070195;28;20039;-75
2022/11/17 02:40:48;;;;;;;24.90;14.40;;;20.00;57.60;;;;;;5065299;28;20083;-75
2022/11/17 02:46:21;;;;;;;24.85;14.05;;;20.00;57.70;;;;;;5070104;28;20450;-75
2022/11/17 02:49:01;;;;;;;20.45;14.35;;;20.00;57.80;;;;;;5065334;28;20028;-75
2022/11/17 02:51:28;;;;;;;18.88;13.00;;;20.00;57.70;;;;;;5062379;28;20028;-75
2022/11/17 02:53:56;;;;;;;23.15;14.07;;;20.00;58.00;;;;;;5052638;28;20096;-75
2022/11/17 02:56:22;;;;;;;22.45;13.48;;;20.00;58.00;;;;;;5069479;28;20496;-75
2022/11/17 02:58:53;;;;;;;20.92;13.73;;;20.00;58.10;;;;;;5069952;28;20475;-74
2022/11/17 03:01:44;;;;;;;24.55;13.73;;;20.00;57.90;;;;;;5069874;28;20056;-74
2022/11/17 03:04:34;;;;;;;22.35;12.48;;;20.00;58.00;;;;;;5070356;28;20025;-75
2022/11/17 03:07:09;;;;;;;19.58;12.90;;;20.00;58.00;;;;;;5066230;28;20035;-74
2022/11/17 03:09:54;;;;;;;21.60;12.73;;;20.00;58.30;;;;;;5074253;28;20441;-75
2022/11/17 03:12:32;;;;;;;20.30;13.27;;;20.00;58.10;;;;;;5072731;28;20547;-75
2022/11/17 03:15:13;;;;;;;20.10;12.85;;;20.00;58.60;;;;;;5074979;28;20035;-75
2022/11/17 03:17:56;;;;;;;18.83;12.73;;;20.00;58.40;;;;;;5072105;28;20474;-75
2022/11/17 03:20:30;;;;;;;20.77;12.40;;;20.00;58.40;;;;;;5064281;28;20135;-75
2022/11/17 03:23:06;;;;;;;23.90;13.18;;;20.00;58.10;;;;;;5073646;28;20035;-75
2022/11/17 03:25:36;;;;;;;21.55;12.52;;;20.00;58.20;;;;;;5074464;28;20078;-75
2022/11/17 03:28:06;;;;;;;19.90;11.60;;;20.10;57.90;;;;;;5073933;28;20559;-75
2022/11/17 03:30:34;;;;;;;20.90;11.40;;;20.00;58.20;;;;;;5074638;28;20025;-75
2022/11/17 03:33:05;;;;;;;17.90;11.88;;;20.00;58.40;;;;;;5073518;28;20028;-75
2022/11/17 03:35:38;;;;;;;18.70;11.60;;;20.00;58.00;;;;;;5072058;28;20028;-74
2022/11/17 03:38:09;;;;;;;17.25;11.70;;;20.00;58.40;;;;;;5070887;28;20039;-75
2022/11/17 03:40:39;;;;;;;18.20;11.73;;;20.10;58.40;;;;;;5066338;28;20024;-75
2022/11/17 03:43:07;;;;;;;16.65;10.23;;;20.00;58.50;;;;;;5072160;28;20111;-75
2022/11/17 03:45:35;;;;;;;17.90;11.85;;;20.00;58.50;;;;;;5071960;28;20075;-75
2022/11/17 03:48:27;;;;;;;16.98;10.50;;;20.00;58.70;;;;;;5072773;28;20036;-75
2022/11/17 03:51:03;;;;;;;17.55;11.20;;;20.00;58.80;;;;;;5060431;28;20041;-74
2022/11/17 03:53:29;;;;;;;22.23;11.88;;;20.00;58.90;;;;;;5068870;28;20299;-76
2022/11/17 03:56:21;;;;;;;16.30;10.35;;;20.00;59.10;;;;;;5069959;28;20070;-75
2022/11/17 03:59:15;;;;;;;17.50;11.07;;;20.00;59.00;;;;;;5072410;28;20051;-74
2022/11/17 04:01:41;;;;;;;20.50;10.93;;;20.00;59.00;;;;;;5065185;28;20442;-75
2022/11/17 04:04:11;;;;;;;17.92;10.77;;;20.00;59.20;;;;;;5065212;28;20059;-75
2022/11/17 04:06:37;;;;;;;17.55;10.88;;;20.00;59.30;;;;;;5072935;28;20066;-75
2022/11/17 04:09:03;;;;;;;18.05;10.35;;;20.00;59.20;;;;;;5071895;28;20387;-75
2022/11/17 04:16:58;;;;;;;18.98;10.10;;;20.00;59.10;;;;;;5052376;28;20052;-74
2022/11/17 04:19:24;;;;;;;23.48;10.63;;;20.00;58.90;;;;;;5072352;28;20028;-74
2022/11/17 04:21:49;;;;;;;23.05;10.93;;;20.00;59.20;;;;;;5071352;28;20471;-74
2022/11/17 04:24:15;;;;;;;20.50;9.98;;;20.00;59.40;;;;;;5072692;28;20021;-75
2022/11/17 04:29:27;;;;;;;16.65;10.07;;;20.00;59.60;;;;;;5063396;28;20437;-75
2022/11/17 04:31:53;;;;;;;21.98;10.05;;;20.00;59.40;;;;;;5070888;28;20036;-74
2022/11/17 04:34:18;;;;;;;19.02;10.32;;;20.00;59.40;;;;;;5073445;28;20025;-74
2022/11/17 04:36:44;;;;;;;16.88;10.20;;;20.00;59.30;;;;;;5071639;28;20432;-75
2022/11/17 04:39:13;;;;;;;20.35;9.63;;;20.00;59.40;;;;;;5047252;28;20025;-74
2022/11/17 04:42:01;;;;;;;14.88;9.27;;;20.00;59.50;;;;;;5063104;28;20120;-74
2022/11/17 04:44:30;;;;;;;16.42;9.50;;;20.00;59.40;;;;;;5070209;28;20385;-74
2022/11/17 04:46:56;;;;;;;16.38;9.15;;;20.00;59.40;;;;;;5067722;28;20028;-75
2022/11/17 04:49:24;;;;;;;15.20;9.48;;;20.00;59.50;;;;;;5071173;28;20028;-75
2022/11/17 04:51:52;;;;;;;14.68;9.27;;;20.00;59.50;;;;;;5068423;28;20032;-75
2022/11/17 04:54:20;;;;;;;16.13;9.18;;;20.00;59.40;;;;;;5062968;28;20036;-75
2022/11/17 04:56:49;;;;;;;16.15;8.50;;;20.00;59.20;;;;;;5053065;28;20079;-75
2022/11/17 04:59:15;;;;;;;14.68;8.82;;;20.00;59.60;;;;;;5072932;28;20029;-75
2022/11/17 05:01:42;;;;;;;15.57;9.32;;;20.00;59.60;;;;;;5070725;28;20023;-75
2022/11/17 05:04:14;;;;;;;17.58;9.48;;;20.00;59.80;;;;;;5052342;28;20496;-75
2022/11/17 05:06:42;;;;;;;15.98;8.73;;;20.00;59.80;;;;;;5070333;28;20073;-75
2022/11/17 05:09:14;;;;;;;15.32;9.18;;;20.00;60.00;;;;;;5068207;28;20024;-75
2022/11/17 05:14:26;;;;;;;14.80;8.35;;;20.00;60.20;;;;;;5062470;28;20099;-75
2022/11/17 05:17:04;;;;;;;12.82;8.85;;;20.00;60.00;;;;;;5070654;28;20044;-75
2022/11/17 05:19:32;;;;;;;16.38;9.13;;;20.00;60.20;;;;;;5063668;28;20138;-75
2022/11/17 05:21:59;;;;;;;15.27;9.50;;;20.00;60.10;;;;;;5071735;28;20374;-75
2022/11/17 05:24:25;;;;;;;15.23;8.80;;;20.00;60.00;;;;;;5069037;28;20028;-75
2022/11/17 05:26:51;;;;;;;20.27;8.98;;;20.00;60.30;;;;;;5070153;28;20033;-75
2022/11/17 05:29:20;;;;;;;13.10;8.57;;;20.00;60.20;;;;;;5071351;28;20052;-75
2022/11/17 05:31:46;;;;;;;13.82;8.88;;;20.00;60.20;;;;;;5057905;28;20559;-75
2022/11/17 05:34:14;;;;;;;18.17;8.80;;;20.00;60.40;;;;;;5069736;28;20037;-75
2022/11/17 05:36:40;;;;;;;15.80;8.45;;;20.00;60.40;;;;;;5069448;28;20104;-75
2022/11/17 05:39:07;;;;;;;15.77;8.82;;;20.00;60.30;;;;;;5071415;28;20020;-74
2022/11/17 05:41:33;;;;;;;15.38;8.77;;;20.00;60.50;;;;;;5090740;23;20199;-74
2022/11/17 05:43:59;;;;;;;14.38;8.10;;;20.00;60.40;;;;;;5089656;28;20555;-75
2022/11/17 05:46:26;;;;;;;14.43;8.15;;;19.90;60.40;;;;;;5090428;28;20028;-75
2022/11/17 05:48:52;;;;;;;13.93;8.25;;;20.00;60.40;;;;;;5091241;28;20496;-75
2022/11/17 05:51:21;;;;;;;11.85;8.07;;;20.00;60.40;;;;;;5091184;28;20586;-75
2022/11/17 05:53:47;;;;;;;13.90;8.38;;;20.00;60.50;;;;;;5091565;28;20039;-74
2022/11/17 05:56:23;;;;;;;14.18;7.72;;;20.00;60.40;;;;;;5089579;28;20035;-74
2022/11/17 05:58:53;;;;;;;13.80;7.90;;;20.00;60.20;;;;;;5092078;28;20035;-74
2022/11/17 06:01:20;;;;;;;12.57;7.93;;;20.00;60.20;;;;;;5089503;28;20484;-74
2022/11/17 06:03:53;;;;;;;12.38;6.80;;;20.00;60.20;;;;;;5089234;28;20102;-74
2022/11/17 06:06:20;;;;;;;12.63;8.00;;;20.00;60.00;;;;;;5090796;28;20370;-75
2022/11/17 06:08:46;;;;;;;14.30;7.95;;;20.00;59.90;;;;;;5091143;28;20036;-75
2022/11/17 06:11:12;;;;;;;23.27;8.00;;;20.00;60.10;;;;;;5071630;28;20040;-75
2022/11/17 06:13:38;;;;;;;13.82;8.43;;;20.00;60.10;;;;;;5090961;28;20030;-75
2022/11/17 06:16:06;;;;;;;13.00;7.85;;;20.00;60.70;;;;;;5090189;28;20028;-75
2022/11/17 06:18:44;;;;;;;16.15;8.38;;;20.00;60.30;;;;;;5090848;28;20116;-75
2022/11/17 06:21:13;;;;;;;11.75;7.78;;;20.00;60.50;;;;;;5090505;28;20133;-76
2022/11/17 06:23:38;;;;;;;15.98;8.27;;;20.00;60.60;;;;;;5091165;28;20034;-76
2022/11/17 06:26:07;;;;;;;12.02;7.50;;;20.00;60.50;;;;;;5090157;28;20023;-76
2022/11/17 06:28:35;;;;;;;13.60;7.80;;;20.00;60.60;;;;;;5090544;28;20056;-75
2022/11/17 06:31:01;;;;;;;16.30;8.38;;;20.00;60.60;;;;;;5084183;28;20410;-75
2022/11/17 06:33:29;;;;;;;16.33;7.75;;;20.00;60.50;;;;;;5090372;28;20020;-75
2022/11/17 06:35:58;;;;;;;12.15;7.75;;;20.00;60.70;;;;;;5085217;28;20060;-76
2022/11/17 06:38:23;;;;;;;14.20;7.75;;;20.00;60.60;;;;;;5085701;28;20020;-76
2022/11/17 06:40:50;;;;;;;11.45;7.75;;;20.00;60.80;;;;;;5085317;28;20257;-76
2022/11/17 06:43:16;;;;;;;14.70;8.05;;;20.00;60.40;;;;;;5089911;28;20024;-76
2022/11/17 06:45:46;;;;;;;14.02;7.75;;;20.00;60.60;;;;;;5088875;28;20038;-75
2022/11/17 06:48:15;;;;;;;17.45;7.40;;;20.00;60.70;;;;;;5087587;28;20024;-75
2022/11/17 06:50:41;;;;;;;17.50;7.93;;;20.00;61.00;;;;;;5088416;28;20504;-76
2022/11/17 06:53:09;;;;;;;13.40;8.20;;;20.00;61.00;;;;;;5089188;28;20020;-76
2022/11/17 06:55:35;;;;;;;21.55;7.60;;;20.00;60.80;;;;;;5089507;28;20028;-76
2022/11/17 06:58:06;;;;;;;15.07;7.40;;;19.90;61.00;;;;;;5089533;28;20359;-74
2022/11/17 07:00:34;;;;;;;14.95;7.32;;;20.00;61.50;;;;;;5087737;28;20478;-72
2022/11/17 07:03:08;;;;;;;16.83;7.32;;;20.00;60.60;;;;;;5085729;28;20031;-74
2022/11/17 07:05:36;;;;;;;12.02;6.63;;;20.00;60.00;;;;;;5090364;28;20054;-73
2022/11/17 07:08:04;;;;;;;16.48;7.55;;;20.10;59.90;;;;;;5090309;28;20024;-73
2022/11/17 07:10:32;;;;;;;19.95;7.30;;;20.10;59.90;;;;;;5072392;28;20027;-73
2022/11/17 07:12:58;;;;;;;13.88;7.28;;;20.10;61.30;;;;;;5090113;28;20565;-73
2022/11/17 07:15:26;;;;;;;14.15;7.65;;;20.20;60.70;;;;;;5090948;28;20149;-73
2022/11/17 07:17:52;;;;;;;12.68;7.57;;;20.20;60.50;;;;;;5090114;28;20028;-73
2022/11/17 07:20:18;;;;;;;22.08;8.18;;;20.20;62.00;;;;;;5089973;28;20095;-72
2022/11/17 07:22:44;;;;;;;19.75;7.97;;;20.20;61.60;;;;;;5088914;28;20481;-72
2022/11/17 07:25:10;;;;;;;31.63;8.20;;;20.30;61.80;;;;;;5090116;28;20032;-73
2022/11/17 07:27:37;;;;;;;19.77;9.13;;;20.20;61.60;;;;;;5089854;28;20073;-73
2022/11/17 07:30:04;;;;;;;37.05;9.25;;;20.30;62.40;;;;;;5089325;28;20051;-73
2022/11/17 07:32:34;;;;;;;19.27;7.38;;;20.20;63.10;;;;;;5089980;28;20028;-73
2022/11/17 07:35:04;;;;;;;17.75;8.38;;;20.20;60.60;;;;;;5089572;28;20019;-72
2022/11/17 07:37:32;;;;;;;18.23;8.18;;;20.10;61.70;;;;;;5087844;28;20028;-72
2022/11/17 07:39:59;;;;;;;23.70;8.10;;;20.10;61.20;;;;;;5083881;28;20650;-72
2022/11/17 07:42:25;;;;;;;18.60;9.93;;;20.20;61.30;;;;;;5083291;28;20046;-73
2022/11/17 07:44:52;;;;;;;18.42;8.32;;;20.10;60.20;;;;;;5078249;28;20035;-72
2022/11/17 07:47:18;;;;;;;21.15;7.75;;;20.10;60.60;;;;;;5082534;28;20030;-72
2022/11/17 07:49:44;;;;;;;20.50;8.55;;;20.10;60.80;;;;;;5081923;28;20362;-72
2022/11/17 07:52:10;;;;;;;15.82;7.32;;;20.10;60.90;;;;;;5092753;28;20032;-72
2022/11/17 07:54:35;;;;;;;20.27;7.85;;;20.10;61.50;;;;;;5088296;28;20111;-73
2022/11/17 07:57:01;;;;;;;14.35;7.25;;;20.00;61.10;;;;;;5090765;28;20103;-72
2022/11/17 07:59:27;;;;;;;15.18;6.85;;;20.00;61.10;;;;;;5092941;28;20100;-72
2022/11/17 08:01:53;;;;;;;20.70;8.00;;;20.00;61.20;;;;;;5093677;28;20016;-72
2022/11/17 08:04:19;;;;;;;18.00;7.63;;;20.00;61.10;;;;;;5092964;28;20411;-72
2022/11/17 08:06:44;;;;;;;21.98;7.35;;;20.00;61.30;;;;;;5092114;28;20562;-74
2022/11/17 08:09:13;;;;;;;18.63;8.05;;;20.00;61.20;;;;;;5091427;28;20028;-73
2022/11/17 08:11:39;;;;;;;18.33;7.45;;;20.00;61.30;;;;;;5093379;28;20035;-73
2022/11/17 08:14:05;;;;;;;14.65;6.95;;;20.00;61.30;;;;;;5092407;28;20555;-73
2022/11/17 08:16:30;;;;;;;15.15;6.88;;;20.00;61.40;;;;;;5093566;28;20024;-73
2022/11/17 08:18:57;;;;;;;12.27;6.85;;;20.00;61.40;;;;;;5092253;28;20028;-73
2022/11/17 08:21:23;;;;;;;14.35;6.82;;;20.00;61.40;;;;;;5092965;28;20072;-73
2022/11/17 08:23:51;;;;;;;22.08;7.88;;;20.00;61.50;;;;;;5092959;28;20032;-73
2022/11/17 08:26:18;;;;;;;17.27;6.80;;;20.00;61.30;;;;;;5091771;28;20031;-73
2022/11/17 08:28:43;;;;;;;19.30;7.55;;;20.00;61.30;;;;;;5091827;28;20493;-72
2022/11/17 08:31:09;;;;;;;17.25;6.63;;;20.00;61.10;;;;;;5090814;28;20062;-72
2022/11/17 08:33:35;;;;;;;12.85;6.82;;;20.00;61.00;;;;;;5092977;28;20087;-73
2022/11/17 08:36:02;;;;;;;12.52;6.55;;;20.00;61.00;;;;;;5092165;28;20036;-72
2022/11/17 08:38:28;;;;;;;15.88;6.80;;;20.00;60.90;;;;;;5093710;28;20020;-73
2022/11/17 08:40:58;;;;;;;15.10;6.85;;;20.00;60.90;;;;;;5082360;28;20101;-73
2022/11/17 08:43:24;;;;;;;13.43;6.47;;;20.00;61.00;;;;;;5083503;28;20409;-72
2022/11/17 08:45:50;;;;;;;11.90;6.78;;;20.00;61.10;;;;;;5092097;28;20020;-73
2022/11/17 08:48:16;;;;;;;18.92;6.97;;;20.00;61.10;;;;;;5091198;28;20047;-73
2022/11/17 08:50:42;;;;;;;14.02;6.97;;;20.00;61.10;;;;;;5092370;28;20166;-73
2022/11/17 08:53:15;;;;;;;11.55;6.30;;;20.00;61.10;;;;;;5091301;28;20032;-73
2022/11/17 08:55:41;;;;;;;12.38;6.63;;;20.00;61.00;;;;;;5090243;28;20428;-72
2022/11/17 08:58:08;;;;;;;13.10;6.38;;;20.00;61.10;;;;;;5091442;28;20031;-72
2022/11/17 09:00:34;;;;;;;15.07;6.72;;;20.00;61.10;;;;;;5091378;28;20044;-72
2022/11/17 09:03:00;;;;;;;15.25;6.45;;;20.00;61.10;;;;;;5091900;28;20081;-73
2022/11/17 09:05:27;;;;;;;10.73;6.40;;;20.00;61.20;;;;;;5083721;28;20030;-72
2022/11/17 09:07:52;;;;;;;13.25;6.45;;;20.00;61.20;;;;;;5091712;28;20116;-73
2022/11/17 09:10:18;;;;;;;10.52;6.50;;;20.00;61.20;;;;;;5092372;28;20062;-72
2022/11/17 09:12:44;;;;;;;15.75;6.57;;;20.00;61.30;;;;;;5090792;28;20098;-72
2022/11/17 09:15:10;;;;;;;11.43;6.05;;;20.00;61.20;;;;;;5091785;28;20024;-72
2022/11/17 09:17:36;;;;;;;12.38;6.38;;;20.00;61.30;;;;;;5091676;28;20032;-72
2022/11/17 09:20:01;;;;;;;15.52;6.68;;;20.00;61.30;;;;;;5090980;28;20153;-72
2022/11/17 09:22:27;;;;;;;12.15;6.05;;;20.00;61.30;;;;;;5090573;28;20048;-73
2022/11/17 09:24:53;;;;;;;11.52;6.22;;;20.00;61.30;;;;;;5091184;28;20392;-73
2022/11/17 09:27:19;;;;;;;12.43;6.53;;;20.00;61.10;;;;;;5090651;28;20035;-73
2022/11/17 09:29:44;;;;;;;10.98;6.03;;;20.00;61.20;;;;;;5090605;28;20107;-73
2022/11/17 09:32:11;;;;;;;12.80;6.40;;;20.00;61.30;;;;;;5091373;28;20557;-72
2022/11/17 09:34:37;;;;;;;14.23;6.45;;;20.00;61.30;;;;;;5091845;28;20409;-72
2022/11/17 09:37:02;;;;;;;15.60;6.60;;;20.00;61.30;;;;;;5089979;28;20024;-72
2022/11/17 09:39:28;;;;;;;13.80;6.35;;;19.90;61.30;;;;;;5089387;28;20031;-72
2022/11/17 09:41:56;;;;;;;11.45;6.70;;;19.90;61.30;;;;;;5091021;28;20035;-72
2022/11/17 09:44:24;;;;;;;13.23;6.70;;;19.90;61.30;;;;;;5090315;28;20477;-72
2022/11/17 09:47:00;;;;;;;11.45;6.75;;;19.90;61.20;;;;;;5091968;28;20031;-72
2022/11/17 09:49:42;;;;;;;14.18;5.63;;;20.00;61.30;;;;;;5088524;28;20058;-73
2022/11/17 09:52:19;;;;;;;15.25;6.28;;;20.00;61.20;;;;;;5082438;28;20047;-73
2022/11/17 09:54:55;;;;;;;11.75;6.10;;;20.00;61.00;;;;;;5087063;28;20020;-73
2022/11/17 09:57:39;;;;;;;12.25;5.80;;;20.00;61.10;;;;;;5091839;28;20135;-72
2022/11/17 10:00:18;;;;;;;11.05;5.85;;;20.00;61.20;;;;;;5092123;28;20016;-71
2022/11/17 10:02:45;;;;;;;15.32;6.05;;;20.00;61.10;;;;;;5092074;28;20485;-71
2022/11/17 10:05:18;;;;;;;14.40;6.72;;;20.00;61.10;;;;;;5091956;28;20069;-72
2022/11/17 10:07:52;;;;;;;11.40;6.22;;;20.00;61.20;;;;;;5091959;28;20060;-71
2022/11/17 10:10:43;;;;;;;11.02;6.13;;;20.00;61.20;;;;;;5092073;28;20370;-72
2022/11/17 10:13:22;;;;;;;10.65;5.80;;;20.00;61.20;;;;;;5091865;28;20101;-72
2022/11/17 10:15:53;;;;;;;13.57;6.53;;;20.00;61.30;;;;;;5085480;28;20532;-72
2022/11/17 10:18:19;;;;;;;11.55;6.28;;;19.90;61.20;;;;;;5071135;28;20051;-73
2022/11/17 10:20:45;;;;;;;12.30;6.35;;;19.90;61.30;;;;;;5086819;28;20473;-72
2022/11/17 10:23:18;;;;;;;14.48;6.45;;;20.00;61.40;;;;;;5090489;28;20032;-72
2022/11/17 10:25:47;;;;;;;13.57;6.05;;;19.90;61.40;;;;;;5090525;28;20119;-73
2022/11/17 10:28:27;;;;;;;15.98;6.22;;;19.90;61.50;;;;;;5090332;28;20186;-73
2022/11/17 10:31:01;;;;;;;15.63;5.90;;;19.90;61.50;;;;;;5090553;28;20177;-73
2022/11/17 10:33:45;;;;;;;15.70;6.35;;;19.90;61.50;;;;;;5083891;28;20416;-73
2022/11/17 10:36:27;;;;;;;13.68;6.00;;;19.90;61.50;;;;;;5089029;28;20321;-73
2022/11/17 10:38:56;;;;;;;12.13;5.80;;;19.90;61.50;;;;;;5090755;28;20371;-73
2022/11/17 10:41:27;;;;;;;15.27;6.28;;;20.00;61.50;;;;;;5091585;28;20103;-73
2022/11/17 10:44:11;;;;;;;10.65;6.55;;;20.00;61.50;;;;;;5089399;28;20021;-73
2022/11/17 10:47:25;;;;;;;15.65;6.43;;;20.00;61.70;;;;;;5084538;28;20040;-72
2022/11/17 10:50:17;;;;;;;12.35;6.75;;;20.00;61.40;;;;;;5027780;28;20137;-73
2022/11/17 10:52:43;;;;;;;14.20;6.72;;;19.90;60.90;;;;;;5092062;28;20397;-72
2022/11/17 10:55:17;;;;;;;11.90;6.28;;;20.00;61.10;;;;;;5088795;28;20027;-73
2022/11/17 10:57:46;;;;;;;12.02;6.68;;;20.00;61.10;;;;;;5104388;28;20027;-73
2022/11/17 11:00:35;;;;;;;16.98;6.10;;;20.00;61.10;;;;;;5090350;28;20020;-72
2022/11/17 11:03:03;;;;;;;13.35;6.22;;;20.00;61.60;;;;;;5071411;28;20040;-72
2022/11/17 11:05:29;;;;;;;10.82;5.80;;;20.00;61.30;;;;;;5085698;28;20016;-72
2022/11/17 11:08:24;;;;;;;13.95;6.55;;;20.00;61.10;;;;;;5090342;28;20051;-72
2022/11/17 11:10:52;;;;;;;12.13;6.25;;;20.00;61.30;;;;;;5088278;28;20534;-73
2022/11/17 11:13:30;;;;;;;10.95;5.93;;;20.00;61.50;;;;;;5091065;28;20024;-72
2022/11/17 11:15:56;;;;;;;24.73;6.78;;;20.10;62.10;;;;;;5089569;28;20028;-73
2022/11/17 11:18:22;;;;;;;10.55;5.97;;;20.10;61.10;;;;;;5089888;28;20028;-73
2022/11/17 11:20:54;;;;;;;11.73;5.70;;;20.00;61.10;;;;;;5090241;28;20047;-72
2022/11/17 11:23:30;;;;;;;12.65;6.75;;;20.00;61.30;;;;;;5081140;28;20024;-73
2022/11/17 11:26:09;;;;;;;11.48;6.00;;;20.00;60.90;;;;;;5090835;28;20400;-73
2022/11/17 11:28:55;;;;;;;11.13;6.80;;;20.00;61.20;;;;;;5091729;28;20082;-73
2022/11/17 11:31:41;;;;;;;11.13;6.38;;;20.00;61.30;;;;;;5094550;28;20050;-73
2022/11/17 11:34:31;;;;;;;13.75;6.22;;;20.00;61.40;;;;;;5094711;28;20040;-73
2022/11/17 11:37:11;;;;;;;11.00;5.50;;;20.00;61.40;;;;;;5094581;28;20115;-73
2022/11/17 11:40:06;;;;;;;12.45;5.97;;;20.00;61.40;;;;;;5093763;28;20512;-73
2022/11/17 11:42:44;;;;;;;11.50;5.80;;;19.90;61.30;;;;;;5116562;22;20044;-78
2022/11/17 11:45:29;;;;;;;12.70;5.70;;;20.00;61.40;;;;;;5113258;28;20571;-78
2022/11/17 11:48:19;;;;;;;8.80;5.68;;;19.90;61.30;;;;;;5096663;28;20373;-77
2022/11/17 11:50:53;;;;;;;11.07;6.00;;;19.90;61.30;;;;;;5096773;28;20096;-77
2022/11/17 11:53:31;;;;;;;14.32;6.05;;;19.90;61.30;;;;;;5094036;28;20054;-77
2022/11/17 11:56:08;;;;;;;9.30;5.80;;;19.90;61.30;;;;;;5093575;28;20477;-77
2022/11/17 11:58:37;;;;;;;10.80;5.25;;;19.90;61.30;;;;;;5092628;28;20028;-77
2022/11/17 12:01:05;;;;;;;8.43;5.33;;;19.90;61.30;;;;;;5094579;28;20016;-77
2022/11/17 12:03:49;;;;;;;11.30;5.78;;;19.90;61.30;;;;;;5094534;28;20773;-77
2022/11/17 12:06:52;;;;;;;13.20;5.85;;;19.90;61.30;;;;;;5094468;28;20028;-77
2022/11/17 12:09:37;;;;;;;11.43;5.25;;;19.90;61.30;;;;;;5093930;28;20510;-77
2022/11/17 12:12:12;;;;;;;8.80;5.70;;;19.90;61.20;;;;;;5094679;28;20031;-77
2022/11/17 12:14:38;;;;;;;8.68;5.53;;;19.90;61.20;;;;;;5094728;28;20031;-77
2022/11/17 12:17:13;;;;;;;11.73;6.03;;;19.90;61.20;;;;;;5093985;28;20036;-77
2022/11/17 12:19:56;;;;;;;9.40;5.50;;;19.90;61.20;;;;;;5093769;28;20387;-77
2022/11/17 12:22:33;;;;;;;11.25;5.80;;;19.90;61.20;;;;;;5094116;28;20375;-77
2022/11/17 12:25:14;;;;;;;10.13;5.57;;;19.90;61.20;;;;;;5092847;28;20032;-77
2022/11/17 12:27:44;;;;;;;8.88;5.20;;;19.90;61.10;;;;;;5093248;28;20089;-77
2022/11/17 12:30:45;;;;;;;8.20;5.03;;;19.90;61.10;;;;;;5094265;28;20024;-78
2022/11/17 12:33:10;;;;;;;10.20;6.03;;;19.90;61.00;;;;;;5073556;28;20048;-77
2022/11/17 12:35:38;;;;;;;8.82;5.53;;;19.90;60.90;;;;;;5075438;28;20547;-77
2022/11/17 12:38:14;;;;;;;8.75;5.45;;;19.90;60.90;;;;;;5092800;28;20458;-77
2022/11/17 12:40:46;;;;;;;12.02;6.25;;;19.90;60.90;;;;;;5092289;28;20032;-78
2022/11/17 12:43:15;;;;;;;10.60;5.60;;;19.90;61.00;;;;;;5059048;28;20440;-77
2022/11/17 12:46:08;;;;;;;9.65;5.68;;;20.00;61.00;;;;;;5093440;28;20032;-77
2022/11/17 12:48:36;;;;;;;10.20;5.38;;;19.90;61.00;;;;;;5092550;28;20576;-78
2022/11/17 12:51:12;;;;;;;8.75;5.32;;;19.90;60.90;;;;;;5075995;28;20036;-78
2022/11/17 12:53:55;;;;;;;9.73;5.70;;;19.90;61.00;;;;;;5058972;28;20028;-77
2022/11/17 12:56:59;;;;;;;9.40;5.30;;;19.90;61.00;;;;;;5093417;28;20032;-77
2022/11/17 12:59:52;;;;;;;7.95;5.10;;;19.90;61.00;;;;;;5009470;28;20130;-77
2022/11/17 13:02:46;;;;;;;7.72;5.10;;;19.90;61.00;;;;;;5092205;28;20027;-77
2022/11/17 13:05:23;;;;;;;9.75;5.57;;;19.90;61.00;;;;;;5093540;28;20115;-77
2022/11/17 13:07:49;;;;;;;12.07;5.25;;;19.90;61.00;;;;;;5093421;28;20033;-77
2022/11/17 13:10:28;;;;;;;9.43;5.03;;;19.90;61.00;;;;;;5075254;28;20473;-77
2022/11/17 13:13:15;;;;;;;8.60;5.25;;;19.90;61.00;;;;;;5092864;28;20043;-77
2022/11/17 13:15:42;;;;;;;9.73;5.38;;;19.90;61.00;;;;;;5091673;28;20067;-77
2022/11/17 13:18:29;;;;;;;8.98;5.00;;;19.90;61.00;;;;;;5092148;28;20624;-77
2022/11/17 13:20:55;;;;;;;9.10;5.53;;;19.90;61.00;;;;;;5091988;28;20536;-78
2022/11/17 13:23:27;;;;;;;9.10;5.15;;;19.90;60.90;;;;;;5091963;28;20028;-77
2022/11/17 13:26:15;;;;;;;8.05;5.40;;;19.90;60.90;;;;;;5091939;28;20040;-77